Time;durP1;ratioP1;P1;durP2;ratioP2;P2;SDS_P1;SDS_P2;PMS_P1;PMS_P2;Temp;Humidity;BMP_temperature;BMP_pressure;BME280_temperature;BME280_humidity;BME280_pressure;Samples;Min_cycle;Max_cycle;Signal;HPM_P1;HPM_P2
2021/10/01 00:01:27;;;;;;;;;;;18.90;58.80;;;;;;5075129;28;19921;-64
2021/10/01 00:03:52;;;;;;;;;;;18.90;58.70;;;;;;5066289;28;20336;-64
2021/10/01 00:06:19;;;;;;;;;;;18.90;58.70;;;;;;5067984;28;19935;-64
2021/10/01 00:08:44;;;;;;;;;;;18.80;58.60;;;;;;5066600;28;20034;-64
2021/10/01 00:11:10;;;;;;;;;;;18.90;58.70;;;;;;5078460;28;21028;-64
2021/10/01 00:13:37;;;;;;;;;;;18.80;58.60;;;;;;5072668;28;20013;-63
2021/10/01 00:16:03;;;;;;;;;;;18.90;58.70;;;;;;5072234;28;20201;-64
2021/10/01 00:18:29;;;;;;;;;;;18.80;58.60;;;;;;5076116;28;19923;-64
2021/10/01 00:20:54;;;;;;;;;;;18.90;58.70;;;;;;5067173;28;20290;-64
2021/10/01 00:23:19;;;;;;;;;;;18.90;58.60;;;;;;5067901;28;19917;-64
2021/10/01 00:25:45;;;;;;;;;;;18.80;58.60;;;;;;5063886;28;20383;-64
2021/10/01 00:28:10;;;;;;;;;;;18.80;58.60;;;;;;5072222;28;19931;-64
2021/10/01 00:30:36;;;;;;;;;;;18.90;58.60;;;;;;5072333;28;19920;-65
2021/10/01 00:33:01;;;;;;;;;;;18.80;58.70;;;;;;5067296;28;20390;-64
2021/10/01 00:35:27;;;;;;;;;;;18.80;58.60;;;;;;5072605;28;19926;-64
2021/10/01 00:37:52;;;;;;;;;;;18.80;58.60;;;;;;5072272;28;19966;-64
2021/10/01 00:40:18;;;;;;;;;;;18.80;58.60;;;;;;5064683;28;20268;-64
2021/10/01 00:42:44;;;;;;;;;;;18.80;58.50;;;;;;5071265;28;19943;-65
2021/10/01 00:45:09;;;;;;;;;;;18.80;58.60;;;;;;5065256;28;20371;-65
2021/10/01 00:47:35;;;;;;;;;;;18.80;58.50;;;;;;5074395;28;19985;-65
2021/10/01 00:50:00;;;;;;;;;;;18.80;58.50;;;;;;5072976;22;19931;-54
2021/10/01 00:52:26;;;;;;;;;;;18.80;58.50;;;;;;5061885;28;19921;-59
2021/10/01 00:54:52;;;;;;;;;;;18.80;58.40;;;;;;5065052;28;20392;-59
2021/10/01 00:57:18;;;;;;;;;;;18.80;58.40;;;;;;5067313;28;19917;-58
2021/10/01 00:59:43;;;;;;;;;;;18.80;58.50;;;;;;5064043;28;19970;-56
2021/10/01 01:02:09;;;;;;;;;;;18.80;58.50;;;;;;5050563;28;19981;-59
2021/10/01 01:04:34;;;;;;;;;;;18.80;58.40;;;;;;5069472;28;19916;-57
2021/10/01 01:07:17;;;;;;;;;;;18.80;58.40;;;;;;5064896;28;20413;-56
2021/10/01 01:10:01;;;;;;;;;;;18.80;58.40;;;;;;5046944;28;20007;-57
2021/10/01 01:12:35;;;;;;;;;;;18.80;58.40;;;;;;5064786;28;19921;-57
2021/10/01 01:15:12;;;;;;;;;;;18.80;58.40;;;;;;5052383;28;19921;-58
2021/10/01 01:17:42;;;;;;;;;;;18.80;58.40;;;;;;5047922;28;20011;-56
2021/10/01 01:20:07;;;;;;;;;;;18.80;58.40;;;;;;5040139;28;20472;-57
2021/10/01 01:22:51;;;;;;;;;;;18.80;59.00;;;;;;5070748;28;19920;-56
2021/10/01 01:25:35;;;;;;;;;;;18.80;58.40;;;;;;5062208;28;19931;-59
2021/10/01 01:28:06;;;;;;;;;;;18.80;58.40;;;;;;5064718;28;19988;-56
2021/10/01 01:30:38;;;;;;;;;;;18.80;58.40;;;;;;5047380;28;19920;-58
2021/10/01 01:33:04;;;;;;;;;;;18.80;58.40;;;;;;5057454;28;19917;-58
2021/10/01 01:35:33;;;;;;;;;;;18.70;58.30;;;;;;5047393;28;19940;-57
2021/10/01 01:37:59;;;;;;;;;;;18.80;58.30;;;;;;5047737;28;19921;-58
2021/10/01 01:40:28;;;;;;;;;;;18.80;58.30;;;;;;5054548;28;19923;-56
2021/10/01 01:42:53;;;;;;;;;;;18.70;58.30;;;;;;5055125;28;19956;-59
2021/10/01 01:45:19;;;;;;;;;;;18.80;58.30;;;;;;5067335;28;20080;-57
2021/10/01 01:47:44;;;;;;;;;;;18.80;58.30;;;;;;5055598;28;19922;-57
2021/10/01 01:50:10;;;;;;;;;;;18.80;58.30;;;;;;5065641;28;19920;-60
2021/10/01 01:52:35;;;;;;;;;;;18.80;58.30;;;;;;5065406;28;19924;-57
2021/10/01 01:55:01;;;;;;;;;;;18.70;58.20;;;;;;5064524;28;19974;-57
2021/10/01 01:57:26;;;;;;;;;;;18.80;58.20;;;;;;5036998;28;19952;-58
2021/10/01 01:59:52;;;;;;;;;;;18.70;58.10;;;;;;5045989;28;19959;-59
2021/10/01 02:02:17;;;;;;;;;;;18.80;58.20;;;;;;5046382;28;20444;-56
2021/10/01 02:04:43;;;;;;;;;;;18.70;58.10;;;;;;5051339;28;19924;-59
2021/10/01 02:07:09;;;;;;;;;;;18.70;58.20;;;;;;5049719;28;20327;-58
2021/10/01 02:09:34;;;;;;;;;;;18.70;58.10;;;;;;5052568;28;20292;-58
2021/10/01 02:12:00;;;;;;;;;;;18.70;58.10;;;;;;5046190;28;19924;-59
2021/10/01 02:14:26;;;;;;;;;;;18.70;58.20;;;;;;5069030;28;19920;-54
2021/10/01 02:16:52;;;;;;;;;;;18.70;58.10;;;;;;5048077;28;19947;-59
2021/10/01 02:19:17;;;;;;;;;;;18.70;58.10;;;;;;5045743;28;19993;-57
2021/10/01 02:21:43;;;;;;;;;;;18.70;58.10;;;;;;5049354;28;19956;-56
2021/10/01 02:24:08;;;;;;;;;;;18.70;58.10;;;;;;5035630;28;19924;-59
2021/10/01 02:26:37;;;;;;;;;;;18.70;58.10;;;;;;5077964;28;20434;-59
2021/10/01 02:29:05;;;;;;;;;;;18.70;58.10;;;;;;5063157;28;19917;-59
2021/10/01 02:31:36;;;;;;;;;;;18.70;58.10;;;;;;5068523;28;20011;-58
2021/10/01 02:34:02;;;;;;;;;;;18.70;58.10;;;;;;5054210;28;19925;-59
2021/10/01 02:36:27;;;;;;;;;;;18.70;58.10;;;;;;5045978;28;20647;-59
2021/10/01 02:38:53;;;;;;;;;;;18.70;58.00;;;;;;5046037;28;19963;-59
2021/10/01 02:41:19;;;;;;;;;;;18.70;58.00;;;;;;5063608;28;19969;-58
2021/10/01 02:43:44;;;;;;;;;;;18.70;58.00;;;;;;5068328;28;19920;-57
2021/10/01 02:46:10;;;;;;;;;;;18.70;58.10;;;;;;5064701;28;19916;-56
2021/10/01 02:48:36;;;;;;;;;;;18.70;58.10;;;;;;5063029;28;19992;-57
2021/10/01 02:51:02;;;;;;;;;;;18.70;58.10;;;;;;5036715;28;20321;-57
2021/10/01 02:53:32;;;;;;;;;;;18.70;58.10;;;;;;5050580;28;19951;-56
2021/10/01 02:56:05;;;;;;;;;;;18.70;58.00;;;;;;5046511;28;19921;-56
2021/10/01 02:58:34;;;;;;;;;;;18.70;58.00;;;;;;5045558;28;19924;-58
2021/10/01 03:00:59;;;;;;;;;;;18.70;58.00;;;;;;5064427;28;20015;-59
2021/10/01 03:03:26;;;;;;;;;;;18.60;57.90;;;;;;5046130;28;19923;-56
2021/10/01 03:05:51;;;;;;;;;;;18.70;57.90;;;;;;5047190;28;19917;-58
2021/10/01 03:08:17;;;;;;;;;;;18.70;58.00;;;;;;5072598;28;20369;-59
2021/10/01 03:10:43;;;;;;;;;;;18.60;57.90;;;;;;5027828;28;20358;-57
2021/10/01 03:13:08;;;;;;;;;;;18.70;58.00;;;;;;5071475;28;19965;-55
2021/10/01 03:15:34;;;;;;;;;;;18.60;58.00;;;;;;5048056;28;19974;-58
2021/10/01 03:17:59;;;;;;;;;;;18.60;58.00;;;;;;5050755;28;20435;-56
2021/10/01 03:20:25;;;;;;;;;;;18.60;58.00;;;;;;5048927;28;19916;-57
2021/10/01 03:22:50;;;;;;;;;;;18.60;58.00;;;;;;5069006;28;20007;-59
2021/10/01 03:25:16;;;;;;;;;;;18.60;58.00;;;;;;5056238;28;19921;-58
2021/10/01 03:27:42;;;;;;;;;;;18.60;58.00;;;;;;5074423;28;19924;-59
2021/10/01 03:30:08;;;;;;;;;;;18.60;58.00;;;;;;5050159;28;19927;-56
2021/10/01 03:32:33;;;;;;;;;;;18.60;58.00;;;;;;5071488;28;19925;-57
2021/10/01 03:35:01;;;;;;;;;;;18.60;58.10;;;;;;5067151;28;20336;-59
2021/10/01 03:37:27;;;;;;;;;;;18.60;58.00;;;;;;5067721;28;20000;-58
2021/10/01 03:39:56;;;;;;;;;;;18.60;58.00;;;;;;5071479;28;19999;-58
2021/10/01 03:42:21;;;;;;;;;;;18.60;58.00;;;;;;5049411;28;19942;-54
2021/10/01 03:44:47;;;;;;;;;;;18.60;58.00;;;;;;5066645;28;19917;-55
2021/10/01 03:47:12;;;;;;;;;;;18.60;58.00;;;;;;5071501;28;19916;-59
2021/10/01 03:49:38;;;;;;;;;;;18.60;58.00;;;;;;5071876;28;20423;-57
2021/10/01 03:52:03;;;;;;;;;;;18.60;58.10;;;;;;5067279;28;19917;-56
2021/10/01 03:54:29;;;;;;;;;;;18.50;58.00;;;;;;5066629;28;19920;-58
2021/10/01 03:56:54;;;;;;;;;;;18.60;58.60;;;;;;5068842;28;19917;-57
2021/10/01 03:59:20;;;;;;;;;;;18.60;58.10;;;;;;5067610;28;20598;-59
2021/10/01 04:01:45;;;;;;;;;;;18.60;58.00;;;;;;5066573;28;19955;-58
2021/10/01 04:04:11;;;;;;;;;;;18.60;58.00;;;;;;5057462;28;19927;-60
2021/10/01 04:06:38;;;;;;;;;;;18.50;58.00;;;;;;5069704;28;20417;-62
2021/10/01 04:09:03;;;;;;;;;;;18.50;58.00;;;;;;5070872;28;19916;-55
2021/10/01 04:11:29;;;;;;;;;;;18.60;58.00;;;;;;5074710;28;19921;-58
2021/10/01 04:13:54;;;;;;;;;;;18.50;58.00;;;;;;5065565;28;20332;-55
2021/10/01 04:16:20;;;;;;;;;;;18.50;58.10;;;;;;5070400;28;20297;-58
2021/10/01 04:18:45;;;;;;;;;;;18.50;58.00;;;;;;5067718;28;19916;-57
2021/10/01 04:21:11;;;;;;;;;;;18.50;58.00;;;;;;5072769;28;19916;-59
2021/10/01 04:23:36;;;;;;;;;;;18.50;58.20;;;;;;5077491;28;20125;-57
2021/10/01 04:26:02;;;;;;;;;;;18.50;58.20;;;;;;5066292;28;19924;-56
2021/10/01 04:28:27;;;;;;;;;;;18.50;58.30;;;;;;5077448;28;19918;-60
2021/10/01 04:30:53;;;;;;;;;;;18.50;58.10;;;;;;5073345;28;19912;-59
2021/10/01 04:33:21;;;;;;;;;;;18.60;58.40;;;;;;5062770;28;20023;-59
2021/10/01 04:35:47;;;;;;;;;;;18.60;58.90;;;;;;5063022;28;19920;-59
2021/10/01 04:38:12;;;;;;;;;;;18.60;58.40;;;;;;5063129;28;19922;-56
2021/10/01 04:40:38;;;;;;;;;;;18.60;58.50;;;;;;5068389;28;19916;-59
2021/10/01 04:43:03;;;;;;;;;;;18.60;58.60;;;;;;5062412;28;19978;-56
2021/10/01 04:45:29;;;;;;;;;;;18.60;58.60;;;;;;5065208;28;19954;-59
2021/10/01 04:47:54;;;;;;;;;;;18.60;58.60;;;;;;5068047;28;19916;-56
2021/10/01 04:50:20;;;;;;;;;;;18.60;58.80;;;;;;5066356;28;19920;-59
2021/10/01 04:52:45;;;;;;;;;;;18.60;58.80;;;;;;5066946;28;20494;-56
2021/10/01 04:55:10;;;;;;;;;;;18.60;58.70;;;;;;5073489;28;19924;-58
2021/10/01 04:57:36;;;;;;;;;;;18.60;58.60;;;;;;5063207;28;19916;-56
2021/10/01 05:00:02;;;;;;;;;;;18.50;58.60;;;;;;5063111;28;19917;-55
2021/10/01 05:02:27;;;;;;;;;;;18.60;58.60;;;;;;5066521;28;19916;-54
2021/10/01 05:04:55;;;;;;;;;;;18.60;58.40;;;;;;5065928;28;19924;-56
2021/10/01 05:07:21;;;;;;;;;;;18.60;58.40;;;;;;5067437;28;20073;-57
2021/10/01 05:09:46;;;;;;;;;;;18.60;58.40;;;;;;5065907;28;20366;-56
2021/10/01 05:12:12;;;;;;;;;;;18.50;58.20;;;;;;5063221;28;19961;-57
2021/10/01 05:14:37;;;;;;;;;;;18.50;58.30;;;;;;5062804;28;19927;-59
2021/10/01 05:17:03;;;;;;;;;;;18.50;59.10;;;;;;5064412;28;19924;-59
2021/10/01 05:19:28;;;;;;;;;;;18.50;60.20;;;;;;5047199;28;20520;-58
2021/10/01 05:21:54;;;;;;;;;;;18.40;60.20;;;;;;5061645;28;19969;-58
2021/10/01 05:24:19;;;;;;;;;;;18.50;60.30;;;;;;5061848;28;19921;-56
2021/10/01 05:26:45;;;;;;;;;;;18.40;60.90;;;;;;5066643;28;19960;-59
2021/10/01 05:29:10;;;;;;;;;;;18.40;60.40;;;;;;5067024;28;19981;-57
2021/10/01 05:31:36;;;;;;;;;;;18.40;60.00;;;;;;5053139;28;19945;-59
2021/10/01 05:34:02;;;;;;;;;;;18.40;59.20;;;;;;5065771;28;19912;-59
2021/10/01 05:36:27;;;;;;;;;;;18.40;58.50;;;;;;5078061;28;19912;-56
2021/10/01 05:38:52;;;;;;;;;;;18.40;58.20;;;;;;5068288;28;19916;-54
2021/10/01 05:41:19;;;;;;;;;;;18.40;57.80;;;;;;5074143;28;19923;-53
2021/10/01 05:43:45;;;;;;;;;;;18.40;57.60;;;;;;5063472;28;19920;-54
2021/10/01 05:46:10;;;;;;;;;;;18.40;57.30;;;;;;5071079;28;19916;-60
2021/10/01 05:48:38;;;;;;;;;;;18.40;56.90;;;;;;5080197;28;19912;-59
2021/10/01 05:51:07;;;;;;;;;;;18.40;56.60;;;;;;5067177;28;19964;-59
2021/10/01 05:56:01;;;;;;;;;;;18.40;55.90;;;;;;5062413;28;19999;-59
2021/10/01 05:58:26;;;;;;;;;;;18.50;55.60;;;;;;5049405;28;19988;-59
2021/10/01 06:00:52;;;;;;;;;;;18.40;55.10;;;;;;5065942;28;19916;-58
2021/10/01 06:03:18;;;;;;;;;;;18.40;54.90;;;;;;5044709;28;20042;-54
2021/10/01 06:05:43;;;;;;;;;;;18.40;54.70;;;;;;5065200;28;19912;-58
2021/10/01 06:08:08;;;;;;;;;;;18.40;54.50;;;;;;5079803;28;19952;-58
2021/10/01 06:10:34;;;;;;;;;;;18.40;54.40;;;;;;5068127;28;20047;-59
2021/10/01 06:12:59;;;;;;;;;;;18.40;54.40;;;;;;5073532;28;19912;-55
2021/10/01 06:15:25;;;;;;;;;;;18.40;54.30;;;;;;5066403;28;19935;-56
2021/10/01 06:17:50;;;;;;;;;;;18.40;54.10;;;;;;5075828;28;19966;-59
2021/10/01 06:20:16;;;;;;;;;;;18.40;54.20;;;;;;5069973;28;20134;-56
2021/10/01 06:22:43;;;;;;;;;;;18.40;54.20;;;;;;5074850;28;21286;-56
2021/10/01 06:25:08;;;;;;;;;;;18.40;54.50;;;;;;5074805;28;20526;-54
2021/10/01 06:27:34;;;;;;;;;;;18.40;54.90;;;;;;5077719;28;19920;-55
2021/10/01 06:29:59;;;;;;;;;;;18.40;54.40;;;;;;5063968;28;20296;-55
2021/10/01 06:32:29;;;;;;;;;;;18.40;54.10;;;;;;5074077;28;19958;-58
2021/10/01 06:34:54;;;;;;;;;;;18.30;54.10;;;;;;5066651;28;19916;-56
2021/10/01 06:37:20;;;;;;;;;;;18.40;54.20;;;;;;5076312;28;19918;-56
2021/10/01 06:39:45;;;;;;;;;;;18.30;54.00;;;;;;5073387;28;20418;-57
2021/10/01 06:42:12;;;;;;;;;;;18.40;54.00;;;;;;5081886;28;19916;-55
2021/10/01 06:44:38;;;;;;;;;;;18.40;53.90;;;;;;5078064;28;19940;-55
2021/10/01 06:47:12;;;;;;;;;;;18.30;53.90;;;;;;5070569;28;19912;-59
2021/10/01 08:19:58;;;;;;;;;;;18.20;59.10;;;;;;5069791;28;19918;-56
2021/10/01 08:22:23;;;;;;;;;;;18.20;59.30;;;;;;5079107;28;19917;-52
2021/10/01 08:24:49;;;;;;;;;;;18.20;59.40;;;;;;5083820;28;19924;-52
2021/10/01 08:27:15;;;;;;;;;;;18.20;59.20;;;;;;5079180;28;20419;-58
2021/10/01 08:29:41;;;;;;;;;;;18.20;59.40;;;;;;5083814;28;20350;-56
2021/10/01 08:32:06;;;;;;;;;;;18.20;59.40;;;;;;5046200;28;20007;-55
2021/10/01 08:34:33;;;;;;;;;;;18.20;59.40;;;;;;5063815;28;20020;-57
2021/10/01 08:36:58;;;;;;;;;;;18.20;59.50;;;;;;5054398;28;20362;-57
2021/10/01 08:39:24;;;;;;;;;;;18.20;59.50;;;;;;5076028;28;19969;-51
2021/10/01 08:41:49;;;;;;;;;;;18.20;59.60;;;;;;5068066;28;20552;-58
2021/10/01 08:44:15;;;;;;;;;;;18.20;59.60;;;;;;5071789;28;19917;-57
2021/10/01 08:46:40;;;;;;;;;;;18.20;59.60;;;;;;5073125;28;20278;-52
2021/10/01 08:49:07;;;;;;;;;;;18.20;59.50;;;;;;5074893;28;19916;-54
2021/10/01 08:51:33;;;;;;;;;;;18.20;59.70;;;;;;5069487;28;19932;-54
2021/10/01 08:53:58;;;;;;;;;;;18.20;59.70;;;;;;5069421;28;19913;-53
2021/10/01 08:56:24;;;;;;;;;;;18.20;59.70;;;;;;5062698;28;20365;-58
2021/10/01 08:58:49;;;;;;;;;;;18.20;59.50;;;;;;5062286;28;19985;-54
2021/10/01 09:01:15;;;;;;;;;;;18.20;59.60;;;;;;5063588;28;20015;-58
2021/10/01 09:03:41;;;;;;;;;;;18.20;59.80;;;;;;5073535;28;19923;-55
2021/10/01 09:06:07;;;;;;;;;;;18.20;59.70;;;;;;5084209;28;20007;-57
2021/10/01 09:08:34;;;;;;;;;;;18.20;59.70;;;;;;5071144;28;20000;-58
2021/10/01 09:10:59;;;;;;;;;;;18.20;59.70;;;;;;5077217;28;19995;-59
2021/10/01 09:13:25;;;;;;;;;;;18.20;59.80;;;;;;5082900;28;20756;-55
2021/10/01 09:15:57;;;;;;;;;;;18.20;59.80;;;;;;5080506;28;19920;-53
2021/10/01 09:18:26;;;;;;;;;;;18.20;59.80;;;;;;5063431;28;20577;-56
2021/10/01 09:21:01;;;;;;;;;;;18.20;59.70;;;;;;5073482;28;20410;-59
2021/10/01 09:23:27;;;;;;;;;;;18.20;59.80;;;;;;5075727;28;20042;-55
2021/10/01 09:26:04;;;;;;;;;;;18.20;59.90;;;;;;5069787;28;19923;-54
2021/10/01 09:28:41;;;;;;;;;;;18.20;59.80;;;;;;5057459;28;19920;-55
2021/10/01 09:31:07;;;;;;;;;;;18.20;59.80;;;;;;5078069;28;19916;-56
2021/10/01 09:33:32;;;;;;;;;;;18.20;59.90;;;;;;5076545;28;19912;-58
2021/10/01 09:36:07;;;;;;;;;;;18.20;59.90;;;;;;5070416;28;19917;-58
2021/10/01 09:38:34;;;;;;;;;;;18.20;59.90;;;;;;5078222;28;19916;-57
2021/10/01 09:41:13;;;;;;;;;;;18.20;60.00;;;;;;5071571;28;19920;-57
2021/10/01 09:43:39;;;;;;;;;;;18.20;60.00;;;;;;5055025;28;19916;-58
2021/10/01 09:46:13;;;;;;;;;;;18.20;60.00;;;;;;5073250;28;19934;-58
2021/10/01 09:48:39;;;;;;;;;;;18.20;60.10;;;;;;5061234;28;19912;-56
2021/10/01 09:51:08;;;;;;;;;;;18.20;60.00;;;;;;5077534;28;19970;-59
2021/10/01 09:53:49;;;;;;;;;;;18.20;60.10;;;;;;5082498;28;19912;-57
2021/10/01 09:56:18;;;;;;;;;;;18.20;59.90;;;;;;5045169;28;19917;-58
2021/10/01 09:58:43;;;;;;;;;;;18.20;60.10;;;;;;5071311;28;19978;-55
2021/10/01 10:01:08;;;;;;;;;;;18.20;60.10;;;;;;5052272;28;20374;-52
2021/10/01 10:03:35;;;;;;;;;;;18.20;60.10;;;;;;5066171;28;19982;-52
2021/10/01 10:06:05;;;;;;;;;;;18.20;60.80;;;;;;5075218;28;19912;-58
2021/10/01 10:08:30;;;;;;;;;;;18.20;60.20;;;;;;5051038;28;20228;-57
2021/10/01 10:10:56;;;;;;;;;;;18.20;60.00;;;;;;5067786;28;20369;-56
2021/10/01 10:13:46;;;;;;;;;;;18.20;60.30;;;;;;5082107;28;19999;-59
2021/10/01 10:16:12;;;;;;;;;;;18.20;60.40;;;;;;5067831;28;19930;-54
2021/10/01 10:18:38;;;;;;;;;;;18.10;60.10;;;;;;5081662;28;19963;-61
2021/10/01 10:21:03;;;;;;;;;;;18.20;60.20;;;;;;5072928;28;20292;-58
2021/10/01 10:23:29;;;;;;;;;;;18.20;60.20;;;;;;5050883;28;19913;-54
2021/10/01 10:25:54;;;;;;;;;;;18.20;60.30;;;;;;5081294;28;20006;-58
2021/10/01 10:28:20;;;;;;;;;;;18.10;60.30;;;;;;5062513;28;20466;-57
2021/10/01 10:30:49;;;;;;;;;;;18.10;60.30;;;;;;5069232;28;19916;-55
2021/10/01 10:33:33;;;;;;;;;;;18.10;60.30;;;;;;5052931;28;19939;-56
2021/10/01 10:35:59;;;;;;;;;;;18.20;60.40;;;;;;5081599;28;19999;-59
2021/10/01 10:38:31;;;;;;;;;;;18.20;60.20;;;;;;5071819;28;19919;-58
2021/10/01 10:40:56;;;;;;;;;;;18.20;60.10;;;;;;5053936;28;20118;-56
2021/10/01 10:43:22;;;;;;;;;;;18.20;60.30;;;;;;5056849;28;20018;-59
2021/10/01 10:45:49;;;;;;;;;;;18.20;60.40;;;;;;5057375;28;19919;-54
2021/10/01 10:48:17;;;;;;;;;;;18.20;60.40;;;;;;5059859;28;19919;-57
2021/10/01 10:50:44;;;;;;;;;;;18.20;60.20;;;;;;5076246;28;20309;-55
2021/10/01 10:53:15;;;;;;;;;;;18.20;60.40;;;;;;5067950;28;19913;-56
2021/10/01 10:56:00;;;;;;;;;;;18.20;60.50;;;;;;5069503;28;19920;-57
2021/10/01 10:58:30;;;;;;;;;;;18.20;60.50;;;;;;5072269;28;19920;-55
2021/10/01 11:01:21;;;;;;;;;;;18.20;60.50;;;;;;5081437;28;20556;-55
2021/10/01 11:03:47;;;;;;;;;;;18.20;60.60;;;;;;5059458;28;19957;-58
2021/10/01 11:06:13;;;;;;;;;;;18.20;60.70;;;;;;5043583;28;19916;-56
2021/10/01 11:08:42;;;;;;;;;;;18.20;60.70;;;;;;5080244;28;20290;-59
2021/10/01 11:11:26;;;;;;;;;;;18.20;60.70;;;;;;5081342;28;19959;-52
2021/10/01 11:13:52;;;;;;;;;;;18.20;60.40;;;;;;5066151;28;19919;-56
2021/10/01 11:16:18;;;;;;;;;;;18.20;60.70;;;;;;5055980;28;19920;-57
2021/10/01 11:18:46;;;;;;;;;;;18.20;60.60;;;;;;5071869;28;19981;-59
2021/10/01 11:21:27;;;;;;;;;;;18.20;60.70;;;;;;5072611;28;19950;-55
2021/10/01 11:23:56;;;;;;;;;;;18.20;61.30;;;;;;5062838;28;19920;-59
2021/10/01 11:26:25;;;;;;;;;;;18.20;60.80;;;;;;5076145;28;19919;-56
2021/10/01 11:28:51;;;;;;;;;;;18.20;60.50;;;;;;5049360;28;20331;-59
2021/10/01 11:31:16;;;;;;;;;;;18.20;60.70;;;;;;5047701;28;20349;-59
2021/10/01 11:33:48;;;;;;;;;;;18.10;60.50;;;;;;5055514;28;19912;-59
2021/10/01 11:36:13;;;;;;;;;;;18.10;60.70;;;;;;5076169;28;19916;-60
2021/10/01 11:38:39;;;;;;;;;;;18.20;60.30;;;;;;5081053;28;19913;-57
2021/10/01 11:41:11;;;;;;;;;;;18.20;60.70;;;;;;5080568;28;19916;-54
2021/10/01 11:43:50;;;;;;;;;;;18.20;60.80;;;;;;5053143;28;19913;-60
2021/10/01 11:46:29;;;;;;;;;;;18.20;60.30;;;;;;5059336;28;19912;-54
2021/10/01 11:48:55;;;;;;;;;;;18.20;60.70;;;;;;5070067;28;19913;-57
2021/10/01 11:51:20;;;;;;;;;;;18.20;60.80;;;;;;5076100;28;19920;-58
2021/10/01 11:53:46;;;;;;;;;;;18.20;60.90;;;;;;5084065;28;19926;-53
2021/10/01 11:56:12;;;;;;;;;;;18.20;60.70;;;;;;5060937;28;20377;-52
2021/10/01 11:58:38;;;;;;;;;;;18.20;60.80;;;;;;5075264;28;19920;-53
2021/10/01 12:01:09;;;;;;;;;;;18.20;61.00;;;;;;5065505;28;20314;-58
2021/10/01 12:03:35;;;;;;;;;;;18.20;60.90;;;;;;5079288;28;19966;-59
2021/10/01 12:06:00;;;;;;;;;;;18.20;60.60;;;;;;5079668;28;19947;-52
2021/10/01 12:08:29;;;;;;;;;;;18.20;60.90;;;;;;5066254;28;20516;-52
2021/10/01 12:10:55;;;;;;;;;;;18.20;61.10;;;;;;5081714;28;20602;-53
2021/10/01 12:13:24;;;;;;;;;;;18.20;61.10;;;;;;5083006;28;19987;-57
2021/10/01 12:15:51;;;;;;;;;;;18.20;61.10;;;;;;5061319;28;19977;-55
2021/10/01 12:18:27;;;;;;;;;;;18.20;60.80;;;;;;5083297;28;19912;-54
2021/10/01 12:20:52;;;;;;;;;;;18.20;61.10;;;;;;5056522;28;20413;-56
2021/10/01 12:23:18;;;;;;;;;;;18.20;61.10;;;;;;5060596;28;19995;-59
2021/10/01 12:25:44;;;;;;;;;;;18.20;61.10;;;;;;5072155;28;19912;-59
2021/10/01 12:28:09;;;;;;;;;;;18.20;61.10;;;;;;5080456;28;20561;-55
2021/10/01 12:30:35;;;;;;;;;;;18.20;60.90;;;;;;5063627;28;19913;-55
2021/10/01 12:33:00;;;;;;;;;;;18.20;61.10;;;;;;5072018;28;19912;-54
2021/10/01 12:35:26;;;;;;;;;;;18.20;61.20;;;;;;5047601;28;19920;-53
2021/10/01 12:37:51;;;;;;;;;;;18.20;60.90;;;;;;5057425;28;20308;-57
2021/10/01 12:40:16;;;;;;;;;;;18.20;61.20;;;;;;5074603;28;19912;-55
2021/10/01 12:42:42;;;;;;;;;;;18.20;61.30;;;;;;5056115;28;20017;-54
2021/10/01 12:45:12;;;;;;;;;;;18.20;61.30;;;;;;5056468;28;20427;-55
2021/10/01 12:47:38;;;;;;;;;;;18.20;61.20;;;;;;5061928;28;19920;-56
2021/10/01 12:50:11;;;;;;;;;;;18.20;61.40;;;;;;5084263;22;19900;-61
2021/10/01 12:52:37;;;;;;;;;;;18.20;61.40;;;;;;5070190;28;19916;-61
2021/10/01 12:55:09;;;;;;;;;;;18.20;61.40;;;;;;5078385;28;19921;-62
2021/10/01 12:57:35;;;;;;;;;;;18.20;61.40;;;;;;5078267;28;19919;-62
2021/10/01 13:00:00;;;;;;;;;;;18.20;61.30;;;;;;5072247;28;19920;-62
2021/10/01 13:02:27;;;;;;;;;;;18.20;61.30;;;;;;5078334;28;20439;-61
2021/10/01 13:04:52;;;;;;;;;;;18.20;61.30;;;;;;5078366;28;20292;-61
2021/10/01 13:07:25;;;;;;;;;;;18.20;61.40;;;;;;5068763;28;19912;-62
2021/10/01 13:09:50;;;;;;;;;;;18.20;61.30;;;;;;5077661;28;20089;-62
2021/10/01 13:12:45;;;;;;;;;;;18.20;61.40;;;;;;5080778;28;20617;-62
2021/10/01 13:15:10;;;;;;;;;;;18.20;61.40;;;;;;4988588;28;19957;-62
2021/10/01 13:17:35;;;;;;;;;;;18.20;61.40;;;;;;5079820;28;19948;-63
2021/10/01 13:20:01;;;;;;;;;;;18.20;61.40;;;;;;5069805;28;20144;-62
2021/10/01 13:22:46;;;;;;;;;;;18.20;61.10;;;;;;5075621;28;19913;-62
2021/10/01 13:25:12;;;;;;;;;;;18.20;61.40;;;;;;5058596;28;19948;-63
2021/10/01 13:27:37;;;;;;;;;;;18.20;61.40;;;;;;5071713;28;19920;-62
2021/10/01 13:30:03;;;;;;;;;;;18.20;61.40;;;;;;5072529;28;19920;-62
2021/10/01 13:32:28;;;;;;;;;;;18.20;61.40;;;;;;5059418;28;20290;-63
2021/10/01 13:34:54;;;;;;;;;;;18.20;61.50;;;;;;5066602;28;19920;-62
2021/10/01 13:37:20;;;;;;;;;;;18.20;61.50;;;;;;5078883;28;20408;-62
2021/10/01 13:39:45;;;;;;;;;;;18.20;61.40;;;;;;5070670;28;20420;-62
2021/10/01 13:42:11;;;;;;;;;;;18.20;62.10;;;;;;5069344;28;19919;-62
2021/10/01 13:44:36;;;;;;;;;;;18.20;61.60;;;;;;5050909;28;20506;-61
2021/10/01 13:47:01;;;;;;;;;;;18.20;61.50;;;;;;5062619;28;19912;-62
2021/10/01 13:49:27;;;;;;;;;;;18.20;61.60;;;;;;5078148;28;19912;-63
2021/10/01 13:51:52;;;;;;;;;;;18.30;61.60;;;;;;5079160;28;19955;-61
2021/10/01 13:54:18;;;;;;;;;;;18.30;61.70;;;;;;5071593;28;19913;-61
2021/10/01 13:56:43;;;;;;;;;;;18.30;61.60;;;;;;5067312;28;19943;-60
2021/10/01 13:59:09;;;;;;;;;;;18.30;61.60;;;;;;5062221;28;19919;-62
2021/10/01 14:01:34;;;;;;;;;;;18.30;61.60;;;;;;5076643;28;19916;-62
2021/10/01 14:04:00;;;;;;;;;;;18.30;61.70;;;;;;5057899;28;19913;-62
2021/10/01 14:06:25;;;;;;;;;;;18.30;61.70;;;;;;5078712;28;20199;-61
2021/10/01 14:08:50;;;;;;;;;;;18.30;61.60;;;;;;5068336;28;19955;-62
2021/10/01 14:11:16;;;;;;;;;;;18.30;61.70;;;;;;5058701;28;19975;-62
2021/10/01 14:13:41;;;;;;;;;;;18.30;61.20;;;;;;5040569;28;20369;-62
2021/10/01 14:16:07;;;;;;;;;;;18.30;61.60;;;;;;5075879;28;19917;-63
2021/10/01 14:18:32;;;;;;;;;;;18.30;61.60;;;;;;5077688;28;19938;-63
2021/10/01 14:20:58;;;;;;;;;;;18.30;61.80;;;;;;5063492;28;19913;-62
2021/10/01 14:23:24;;;;;;;;;;;18.30;61.60;;;;;;5067305;28;19916;-61
2021/10/01 14:25:49;;;;;;;;;;;18.30;61.40;;;;;;5058280;28;19920;-62
2021/10/01 14:28:15;;;;;;;;;;;18.30;61.40;;;;;;5057992;28;19923;-62
2021/10/01 14:30:40;;;;;;;;;;;18.30;61.70;;;;;;5067023;28;19916;-62
2021/10/01 14:33:06;;;;;;;;;;;18.30;61.70;;;;;;5076282;28;20548;-62
2021/10/01 14:35:31;;;;;;;;;;;18.30;61.80;;;;;;5057704;28;19928;-61
2021/10/01 14:37:57;;;;;;;;;;;18.30;61.80;;;;;;5067584;28;19920;-61
2021/10/01 14:40:22;;;;;;;;;;;18.30;61.90;;;;;;5066811;28;19917;-63
2021/10/01 14:42:48;;;;;;;;;;;18.30;62.00;;;;;;5058927;28;19920;-62
2021/10/01 14:45:13;;;;;;;;;;;18.30;61.90;;;;;;5078005;28;19912;-60
2021/10/01 14:47:39;;;;;;;;;;;18.30;61.90;;;;;;5077674;28;20367;-63
2021/10/01 14:50:05;;;;;;;;;;;18.30;61.90;;;;;;5066158;28;19927;-63
2021/10/01 14:52:31;;;;;;;;;;;18.30;61.90;;;;;;5057599;28;19920;-62
2021/10/01 14:54:57;;;;;;;;;;;18.30;61.90;;;;;;5058130;28;19917;-62
2021/10/01 14:57:22;;;;;;;;;;;18.30;62.00;;;;;;5062821;28;20377;-62
2021/10/01 14:59:48;;;;;;;;;;;18.30;62.10;;;;;;5058195;28;19913;-61
2021/10/01 15:02:14;;;;;;;;;;;18.30;62.10;;;;;;5058667;28;19978;-61
2021/10/01 15:04:40;;;;;;;;;;;18.30;62.10;;;;;;5058226;28;19913;-62
2021/10/01 15:07:05;;;;;;;;;;;18.30;62.10;;;;;;5075095;28;19966;-62
2021/10/01 15:09:31;;;;;;;;;;;18.30;62.10;;;;;;5057930;28;19917;-62
2021/10/01 15:11:56;;;;;;;;;;;18.30;62.10;;;;;;5058299;28;19913;-62
2021/10/01 15:14:22;;;;;;;;;;;18.40;61.90;;;;;;5070430;28;19951;-62
2021/10/01 15:16:47;;;;;;;;;;;18.40;62.10;;;;;;5060215;28;19929;-62
2021/10/01 15:19:13;;;;;;;;;;;18.40;62.20;;;;;;5061507;28;19919;-61
2021/10/01 15:21:38;;;;;;;;;;;18.40;62.20;;;;;;5072939;28;20629;-62
2021/10/01 15:24:04;;;;;;;;;;;18.40;62.20;;;;;;5044617;28;19912;-62
2021/10/01 15:26:29;;;;;;;;;;;18.30;62.10;;;;;;5074431;28;19916;-63
2021/10/01 15:28:55;;;;;;;;;;;18.40;62.20;;;;;;5074666;28;20299;-62
2021/10/01 15:31:20;;;;;;;;;;;18.30;62.10;;;;;;5062117;28;19961;-63
2021/10/01 15:33:46;;;;;;;;;;;18.40;62.20;;;;;;5044372;28;19919;-62
2021/10/01 15:36:11;;;;;;;;;;;18.40;62.20;;;;;;5061998;28;19934;-62
2021/10/01 15:38:37;;;;;;;;;;;18.40;62.20;;;;;;5081270;28;19997;-61
2021/10/01 15:41:02;;;;;;;;;;;18.40;62.00;;;;;;5081109;28;19912;-63
2021/10/01 15:43:28;;;;;;;;;;;18.40;62.20;;;;;;5063195;28;19913;-63
2021/10/01 15:45:57;;;;;;;;;;;18.40;62.20;;;;;;5061838;28;20397;-62
2021/10/01 15:48:23;;;;;;;;;;;18.40;62.20;;;;;;5080486;28;20007;-61